createdAt,value
2017-09-03T00:00:26.037Z,78.80
2017-09-03T00:02:53.520Z,78.70
2017-09-03T00:05:27.052Z,78.50
2017-09-03T00:08:04.424Z,78.30
2017-09-03T00:10:32.244Z,78.30
2017-09-03T00:12:59.733Z,78.10
2017-09-03T00:15:27.224Z,78.20
2017-09-03T00:17:54.823Z,78.40
2017-09-03T00:20:22.384Z,78.40
2017-09-03T00:22:56.110Z,78.30
2017-09-03T00:25:23.609Z,78.40
2017-09-03T00:27:51.416Z,78.70
2017-09-03T00:30:24.898Z,78.70
2017-09-03T00:32:52.663Z,78.60
2017-09-03T00:35:20.228Z,78.30
2017-09-03T00:37:47.787Z,78.50
2017-09-03T00:40:25.603Z,78.70
2017-09-03T00:42:53.157Z,78.80
2017-09-03T00:45:26.803Z,78.70
2017-09-03T00:48:04.361Z,78.80
2017-09-03T00:50:35.592Z,78.60
2017-09-03T00:53:04.689Z,79.20
2017-09-03T00:55:32.183Z,79.70
2017-09-03T00:57:59.716Z,79.80
2017-09-03T01:00:27.211Z,79.90
2017-09-03T01:03:04.983Z,80.00
2017-09-03T01:05:32.473Z,80.30
2017-09-03T01:08:00.282Z,80.50
2017-09-03T01:10:33.985Z,80.30
2017-09-03T01:13:01.878Z,80.20
2017-09-03T01:15:29.372Z,80.20
2017-09-03T01:18:04.542Z,80.00
2017-09-03T01:20:32.147Z,80.10
2017-09-03T01:22:59.691Z,79.80
2017-09-03T01:25:34.475Z,79.30
2017-09-03T01:28:01.959Z,79.40
2017-09-03T01:30:29.812Z,79.60
2017-09-03T01:32:57.307Z,79.70
2017-09-03T01:35:24.794Z,79.40
2017-09-03T01:37:52.411Z,79.70
2017-09-03T01:40:25.699Z,79.70
2017-09-03T01:42:53.224Z,79.90
2017-09-03T01:45:20.828Z,79.80
2017-09-03T01:47:49.420Z,80.20
2017-09-03T01:50:24.448Z,80.00
2017-09-03T01:52:55.801Z,80.00
2017-09-03T01:55:25.195Z,80.20
2017-09-03T01:57:54.693Z,79.90
2017-09-03T02:00:22.980Z,79.80
2017-09-03T02:02:50.472Z,79.70
2017-09-03T02:05:18.237Z,79.80
2017-09-03T02:07:55.407Z,79.80
2017-09-03T02:10:23.248Z,79.70
2017-09-03T02:12:50.803Z,79.90
2017-09-03T02:15:24.679Z,79.80
2017-09-03T02:17:52.267Z,79.80
2017-09-03T02:20:19.775Z,80.20
2017-09-03T02:22:54.772Z,80.20
2017-09-03T02:25:25.776Z,80.20
2017-09-03T02:27:54.711Z,80.20
2017-09-03T02:30:25.998Z,80.20
2017-09-03T02:32:53.508Z,80.50
2017-09-03T02:35:21.006Z,80.50
2017-09-03T02:37:54.881Z,80.70
2017-09-03T02:40:25.815Z,80.70
2017-09-03T02:42:53.329Z,81.20
2017-09-03T02:45:27.146Z,81.40
2017-09-03T02:47:54.740Z,81.40
2017-09-03T02:50:22.298Z,81.50
2017-09-03T02:52:49.873Z,81.20
2017-09-03T02:55:23.956Z,81.40
2017-09-03T02:57:51.463Z,81.30
2017-09-03T03:00:25.450Z,81.30
2017-09-03T03:02:53.332Z,81.20
2017-09-03T03:05:26.792Z,81.10
2017-09-03T03:07:54.693Z,81.00
2017-09-03T03:10:25.379Z,81.00
2017-09-03T03:12:56.450Z,81.00
2017-09-03T03:15:24.671Z,81.10
2017-09-03T03:17:52.195Z,82.10
2017-09-03T03:20:19.774Z,81.40
2017-09-03T03:22:54.381Z,81.40
2017-09-03T03:25:22.148Z,81.40
2017-09-03T03:27:55.521Z,81.20
2017-09-03T03:30:24.771Z,81.00
2017-09-03T03:32:56.075Z,81.00
2017-09-03T03:35:24.650Z,81.10
2017-09-03T03:37:52.126Z,81.00
2017-09-03T03:40:19.615Z,81.00
2017-09-03T03:42:54.500Z,80.90
2017-09-03T03:45:22.006Z,80.80
2017-09-03T03:47:55.782Z,80.80
2017-09-03T03:50:23.269Z,80.60
2017-09-03T03:52:57.097Z,80.60
2017-09-03T03:55:24.631Z,80.60
2017-09-03T03:57:52.116Z,80.50
2017-09-03T04:00:26.331Z,80.50
2017-09-03T04:02:54.438Z,80.50
2017-09-03T04:05:25.168Z,80.40
2017-09-03T04:07:52.670Z,80.30
2017-09-03T04:10:20.185Z,80.30
2017-09-03T04:12:47.771Z,80.30
2017-09-03T04:15:25.764Z,80.40
2017-09-03T04:17:53.619Z,80.30
2017-09-03T04:20:24.424Z,80.10
2017-09-03T04:22:52.033Z,80.10
2017-09-03T04:25:19.608Z,80.20
2017-09-03T04:27:54.323Z,80.30
2017-09-03T04:30:22.115Z,80.50
2017-09-03T04:32:49.601Z,80.50
2017-09-03T04:35:17.087Z,80.80
2017-09-03T04:37:55.133Z,81.10
2017-09-03T04:40:22.980Z,81.20
2017-09-03T04:42:56.677Z,81.80
2017-09-03T04:45:25.269Z,82.40
2017-09-03T04:47:52.815Z,82.20
2017-09-03T04:50:20.383Z,82.40
2017-09-03T04:52:54.501Z,82.50
2017-09-03T04:55:22.751Z,82.40
2017-09-03T04:57:56.430Z,82.40
2017-09-03T05:00:23.912Z,82.40
2017-09-03T05:02:51.492Z,82.40
2017-09-03T05:05:25.930Z,82.40
2017-09-03T05:07:54.538Z,82.20
2017-09-03T05:10:22.066Z,82.20
2017-09-03T05:12:55.897Z,82.30
2017-09-03T05:15:24.800Z,82.40
2017-09-03T05:17:52.292Z,82.40
2017-09-03T05:20:19.811Z,82.30
2017-09-03T05:22:47.332Z,82.30
2017-09-03T05:25:24.903Z,82.10
2017-09-03T05:27:52.475Z,82.10
2017-09-03T05:30:20.066Z,82.10
2017-09-03T05:32:54.501Z,81.90
2017-09-03T05:35:25.291Z,81.90
2017-09-03T05:37:55.120Z,81.90
2017-09-03T05:40:22.603Z,81.80
2017-09-03T05:42:50.090Z,81.90
2017-09-03T05:45:17.596Z,81.90
2017-09-03T05:47:55.000Z,81.90
2017-09-03T05:50:22.500Z,81.90
2017-09-03T05:52:56.523Z,81.80
2017-09-03T05:55:24.722Z,81.70
2017-09-03T05:57:52.207Z,81.50
2017-09-03T06:00:19.686Z,81.60
2017-09-03T06:02:54.272Z,81.30
2017-09-03T06:05:21.828Z,81.40
2017-09-03T06:07:49.697Z,81.40
2017-09-03T06:10:17.279Z,81.20
2017-09-03T06:12:44.765Z,81.00
2017-09-03T06:15:15.312Z,81.00
2017-09-03T06:17:42.818Z,80.90
2017-09-03T06:20:16.607Z,80.80
2017-09-03T06:22:44.095Z,80.50
2017-09-03T06:25:11.580Z,81.30
2017-09-03T06:27:39.096Z,80.50
2017-09-03T06:30:14.304Z,80.50
2017-09-03T06:32:42.195Z,80.30
2017-09-03T06:35:10.458Z,79.90
2017-09-03T06:37:45.372Z,79.60
2017-09-03T06:40:12.942Z,79.50
2017-09-03T06:42:44.280Z,79.20
2017-09-03T06:45:14.798Z,79.30
2017-09-03T06:47:42.278Z,79.20
2017-09-03T06:50:15.967Z,79.20
2017-09-03T06:52:44.692Z,79.00
2017-09-03T06:55:15.715Z,79.80
2017-09-03T06:57:45.052Z,78.90
2017-09-03T07:00:16.079Z,78.70
2017-09-03T07:02:44.284Z,78.50
2017-09-03T07:05:11.796Z,78.00
2017-09-03T07:07:45.669Z,77.50
2017-09-03T07:10:14.479Z,77.20
2017-09-03T07:12:42.057Z,77.00
2017-09-03T07:15:09.566Z,76.90
2017-09-03T07:17:44.555Z,76.60
2017-09-03T07:20:12.325Z,75.80
2017-09-03T07:22:39.884Z,74.90
2017-09-03T07:25:07.384Z,74.90
2017-09-03T07:27:45.483Z,74.80
2017-09-03T07:30:14.273Z,74.80
2017-09-03T07:32:41.756Z,74.60
2017-09-03T07:35:15.702Z,74.00
2017-09-03T07:37:44.502Z,73.50
2017-09-03T07:40:12.013Z,72.90
2017-09-03T07:42:39.777Z,72.50
2017-09-03T07:45:14.243Z,72.50
2017-09-03T07:47:46.492Z,71.90
2017-09-03T07:50:15.129Z,71.70
2017-09-03T07:52:45.640Z,71.50
2017-09-03T07:55:13.151Z,71.10
2017-09-03T07:57:40.720Z,69.70
2017-09-03T08:00:14.840Z,69.50
2017-09-03T08:02:42.391Z,69.20
2017-09-03T08:05:09.895Z,68.10
2017-09-03T08:07:45.068Z,66.30
2017-09-03T08:10:12.556Z,64.70
2017-09-03T08:12:46.172Z,63.30
2017-09-03T08:15:13.669Z,61.80
2017-09-03T08:17:41.270Z,59.80
2017-09-03T08:20:15.219Z,58.50
2017-09-03T08:22:44.268Z,56.50
2017-09-03T08:25:12.093Z,54.90
2017-09-03T08:27:39.581Z,53.20
2017-09-03T08:30:14.638Z,51.70
2017-09-03T08:32:42.133Z,49.80
2017-09-03T08:35:16.044Z,49.20
2017-09-03T08:37:44.553Z,49.00
2017-09-03T08:40:12.060Z,48.30
2017-09-03T08:42:45.759Z,47.50
2017-09-03T08:45:14.769Z,46.10
2017-09-03T08:47:42.529Z,45.80
2017-09-03T08:50:10.026Z,46.50
2017-09-03T08:52:44.423Z,46.60
2017-09-03T08:55:11.899Z,45.90
2017-09-03T08:57:39.379Z,45.40
2017-09-03T09:00:14.224Z,44.20
2017-09-03T09:02:45.091Z,42.90
2017-09-03T09:05:16.069Z,42.80
2017-09-03T09:07:43.554Z,43.60
2017-09-03T09:10:14.351Z,42.10
2017-09-03T09:12:44.866Z,41.30
2017-09-03T09:15:15.399Z,41.10
2017-09-03T09:17:44.626Z,39.70
2017-09-03T09:20:15.857Z,38.10
2017-09-03T09:22:43.346Z,38.10
2017-09-03T09:25:14.457Z,37.50
2017-09-03T09:27:41.945Z,37.50
2017-09-03T09:30:09.463Z,37.50
2017-09-03T09:32:43.972Z,38.10
2017-09-03T09:35:11.806Z,38.30
2017-09-03T09:37:39.294Z,37.70
2017-09-03T09:40:06.791Z,38.10
2017-09-03T09:42:34.294Z,39.90
2017-09-03T09:45:01.788Z,41.80
2017-09-03T09:47:29.567Z,43.50
2017-09-03T09:50:03.871Z,45.20
2017-09-03T09:52:31.662Z,46.00
2017-09-03T09:55:05.357Z,46.50
2017-09-03T09:57:33.309Z,47.20
2017-09-03T10:00:00.818Z,48.20
2017-09-03T10:02:34.935Z,48.40
2017-09-03T10:05:02.493Z,49.00
2017-09-03T10:07:30.666Z,49.30
2017-09-03T10:10:04.671Z,49.50
2017-09-03T10:12:32.165Z,49.20
2017-09-03T10:15:06.192Z,49.10
2017-09-03T10:17:34.894Z,50.40
2017-09-03T10:20:05.729Z,51.20
2017-09-03T10:22:34.748Z,52.90
2017-09-03T10:25:02.306Z,50.00
2017-09-03T10:27:29.796Z,48.50
2017-09-03T10:30:03.951Z,46.50
2017-09-03T10:32:31.448Z,44.60
2017-09-03T10:35:05.784Z,41.70
2017-09-03T10:37:33.272Z,39.30
2017-09-03T10:40:07.165Z,38.00
2017-09-03T10:42:44.703Z,36.40
2017-09-03T10:45:12.501Z,35.50
2017-09-03T10:47:39.990Z,35.00
2017-09-03T10:50:14.351Z,37.40
2017-09-03T10:52:44.916Z,40.10
2017-09-03T10:55:12.399Z,41.40
2017-09-03T10:57:45.858Z,39.80
2017-09-03T11:00:14.746Z,37.70
2017-09-03T11:02:45.881Z,35.90
2017-09-03T11:05:13.372Z,34.50
2017-09-03T11:07:47.032Z,33.10
2017-09-03T11:10:25.544Z,32.20
2017-09-03T11:12:54.861Z,31.40
2017-09-03T11:15:25.462Z,31.20
2017-09-03T11:17:52.953Z,31.60
2017-09-03T11:20:26.883Z,30.60
2017-09-03T11:22:54.363Z,30.90
2017-09-03T11:25:22.123Z,32.90
2017-09-03T11:27:56.295Z,32.30
2017-09-03T11:30:24.876Z,32.50
2017-09-03T11:32:55.863Z,32.40
2017-09-03T11:35:23.342Z,31.60
2017-09-03T11:37:50.856Z,30.80
2017-09-03T11:40:24.937Z,30.50
2017-09-03T11:42:52.948Z,30.00
2017-09-03T11:45:20.432Z,30.00
2017-09-03T11:47:47.941Z,30.50
2017-09-03T11:50:23.848Z,30.70
2017-09-03T11:52:51.331Z,29.50
2017-09-03T11:55:24.208Z,29.40
2017-09-03T11:57:51.752Z,29.80
2017-09-03T12:00:22.211Z,29.50
2017-09-03T12:02:49.719Z,28.60
2017-09-03T12:05:17.221Z,27.10
2017-09-03T12:07:54.891Z,26.10
2017-09-03T12:10:22.385Z,26.50
2017-09-03T12:12:56.687Z,24.90
2017-09-03T12:15:24.198Z,25.10
2017-09-03T12:17:55.134Z,25.10
2017-09-03T12:20:22.629Z,25.40
2017-09-03T12:22:50.108Z,25.00
2017-09-03T12:25:24.139Z,25.40
2017-09-03T12:27:51.639Z,26.30
2017-09-03T12:30:26.040Z,27.50
2017-09-03T12:32:53.518Z,28.60
2017-09-03T12:35:21.011Z,28.70
2017-09-03T12:37:54.820Z,28.60
2017-09-03T12:40:24.701Z,27.90
2017-09-03T12:42:55.611Z,27.80
2017-09-03T12:45:23.106Z,28.30
2017-09-03T12:47:56.694Z,27.20
2017-09-03T12:50:24.210Z,27.20
2017-09-03T12:52:55.233Z,27.80
2017-09-03T12:55:22.751Z,28.70
2017-09-03T12:57:56.285Z,27.70
2017-09-03T13:00:24.194Z,26.10
2017-09-03T13:02:54.897Z,25.90
2017-09-03T13:05:25.847Z,25.90
2017-09-03T13:07:54.106Z,25.30
2017-09-03T13:10:22.364Z,25.40
2017-09-03T13:12:49.871Z,25.30
2017-09-03T13:15:24.588Z,25.70
2017-09-03T13:17:52.471Z,26.80
2017-09-03T13:20:25.904Z,28.00
2017-09-03T13:22:53.722Z,29.00
2017-09-03T13:25:21.207Z,29.20
2017-09-03T13:27:48.690Z,28.90
2017-09-03T13:30:16.179Z,28.20
2017-09-03T13:32:43.667Z,26.80
2017-09-03T13:35:11.502Z,27.00
2017-09-03T13:37:39.764Z,27.20
2017-09-03T13:40:14.459Z,27.10
2017-09-03T13:42:42.001Z,27.60
2017-09-03T13:45:15.823Z,27.10
2017-09-03T13:47:43.313Z,27.40
2017-09-03T13:50:10.823Z,27.10
2017-09-03T13:52:38.328Z,26.70
2017-09-03T13:55:15.582Z,27.00
2017-09-03T13:57:44.572Z,26.70
2017-09-03T14:00:15.302Z,26.20
2017-09-03T14:02:46.069Z,26.00
2017-09-03T14:05:14.795Z,26.10
2017-09-03T14:07:44.463Z,26.00
2017-09-03T14:10:11.968Z,26.00
2017-09-03T14:12:39.457Z,25.30
2017-09-03T14:15:06.954Z,25.40
2017-09-03T14:17:34.846Z,25.60
2017-09-03T14:20:04.226Z,24.50
2017-09-03T14:22:35.327Z,24.50
2017-09-03T14:25:05.099Z,24.30
2017-09-03T14:27:32.645Z,24.30
2017-09-03T14:30:00.539Z,24.00
2017-09-03T14:32:28.039Z,23.70
2017-09-03T14:34:55.543Z,24.00
2017-09-03T14:37:23.825Z,24.50
2017-09-03T14:39:55.135Z,25.00
2017-09-03T14:42:26.439Z,24.90
2017-09-03T14:44:53.931Z,24.80
2017-09-03T14:47:24.638Z,25.10
2017-09-03T14:49:55.347Z,25.30
2017-09-03T14:52:25.884Z,25.50
2017-09-03T14:54:53.751Z,24.50
2017-09-03T14:57:25.351Z,25.50
2017-09-03T14:59:52.892Z,25.50
2017-09-03T15:02:26.777Z,26.10
2017-09-03T15:05:04.415Z,27.20
2017-09-03T15:07:31.918Z,27.70
2017-09-03T15:09:59.404Z,29.20
2017-09-03T15:12:27.198Z,29.80
2017-09-03T15:14:54.694Z,32.00
2017-09-03T15:17:22.980Z,32.20
2017-09-03T15:19:51.248Z,32.40
2017-09-03T15:22:25.256Z,32.00
2017-09-03T15:24:54.215Z,31.20
2017-09-03T15:27:21.701Z,31.10
2017-09-03T15:29:55.728Z,30.30
2017-09-03T15:32:24.656Z,30.40
2017-09-03T15:34:55.791Z,30.60
2017-09-03T15:37:23.284Z,30.80
2017-09-03T15:39:57.135Z,31.60
2017-09-03T15:42:35.266Z,31.80
2017-09-03T15:45:03.101Z,31.80
2017-09-03T15:47:35.098Z,32.80
2017-09-03T15:50:02.862Z,32.60
2017-09-03T15:52:36.306Z,32.40
2017-09-03T15:55:04.474Z,32.10
2017-09-03T15:57:31.967Z,31.70
2017-09-03T16:00:05.948Z,31.50
2017-09-03T16:02:34.662Z,31.60
2017-09-03T16:05:02.919Z,31.40
2017-09-03T16:07:30.423Z,30.60
2017-09-03T16:09:57.949Z,31.40
2017-09-03T16:12:35.892Z,32.00
2017-09-03T16:15:04.503Z,31.90
2017-09-03T16:17:32.008Z,32.10
2017-09-03T16:19:59.790Z,32.10
2017-09-03T16:22:34.143Z,32.80
2017-09-03T16:25:01.980Z,33.20
2017-09-03T16:27:35.752Z,33.10
2017-09-03T16:30:03.642Z,33.00
2017-09-03T16:32:31.119Z,33.80
2017-09-03T16:34:58.603Z,34.60
2017-09-03T16:37:36.042Z,35.90
2017-09-03T16:40:04.546Z,36.70
2017-09-03T16:42:35.551Z,37.40
2017-09-03T16:45:05.977Z,37.70
2017-09-03T16:47:34.697Z,37.90
2017-09-03T16:50:05.487Z,37.80
2017-09-03T16:52:36.080Z,38.00
2017-09-03T16:55:05.052Z,37.80
2017-09-03T16:57:35.548Z,37.80
2017-09-03T17:00:04.658Z,38.10
2017-09-03T17:02:32.168Z,38.50
2017-09-03T17:04:59.651Z,38.90
2017-09-03T17:07:34.446Z,39.10
2017-09-03T17:10:01.928Z,39.50
2017-09-03T17:12:35.874Z,39.70
2017-09-03T17:15:03.438Z,40.10
2017-09-03T17:17:31.291Z,40.40
2017-09-03T17:20:04.960Z,41.10
2017-09-03T17:22:32.768Z,41.50
2017-09-03T17:25:01.028Z,42.30
2017-09-03T17:27:29.272Z,42.50
2017-09-03T17:29:59.743Z,42.40
2017-09-03T17:32:27.784Z,43.10
2017-09-03T17:34:58.778Z,43.20
2017-09-03T17:37:35.009Z,43.50
2017-09-03T17:40:06.992Z,44.20
2017-09-03T17:42:51.547Z,44.60
2017-09-03T17:45:19.031Z,45.10
2017-09-03T17:47:46.525Z,45.50
2017-09-03T17:50:14.315Z,45.90
2017-09-03T17:52:45.119Z,46.10
2017-09-03T17:55:12.626Z,46.30
2017-09-03T17:57:40.481Z,46.80
2017-09-03T18:00:07.989Z,47.30
2017-09-03T18:02:44.291Z,47.90
2017-09-03T18:05:11.792Z,48.30
2017-09-03T18:07:39.292Z,48.70
2017-09-03T18:10:08.391Z,49.10
2017-09-03T18:12:44.193Z,49.50
2017-09-03T18:15:15.637Z,49.70
2017-09-03T18:17:43.141Z,50.00
2017-09-03T18:20:10.614Z,50.30
2017-09-03T18:22:38.115Z,50.70
2017-09-03T18:25:15.525Z,50.90
2017-09-03T18:27:43.018Z,50.90
2017-09-03T18:30:10.514Z,51.10
2017-09-03T18:32:38.009Z,51.20
2017-09-03T18:35:05.488Z,51.50
2017-09-03T18:37:44.126Z,51.60
2017-09-03T18:40:14.081Z,51.80
2017-09-03T18:42:43.008Z,52.00
2017-09-03T18:45:10.505Z,52.30
2017-09-03T18:47:38.009Z,52.50
2017-09-03T18:50:07.258Z,53.30
2017-09-03T18:52:49.633Z,52.90
2017-09-03T18:55:17.441Z,53.10
2017-09-03T18:57:45.719Z,53.10
2017-09-03T19:00:15.162Z,53.30
2017-09-03T19:02:44.501Z,53.30
2017-09-03T19:05:13.764Z,53.60
2017-09-03T19:07:41.566Z,53.70
2017-09-03T19:10:09.063Z,53.70
2017-09-03T19:12:44.181Z,54.00
2017-09-03T19:15:12.430Z,54.20
2017-09-03T19:17:39.928Z,54.10
2017-09-03T19:20:14.053Z,54.20
2017-09-03T19:22:44.975Z,54.40
2017-09-03T19:27:44.868Z,54.30
2017-09-03T19:30:12.646Z,54.50
2017-09-03T19:32:46.037Z,54.70
2017-09-03T19:35:13.828Z,54.80
2017-09-03T19:37:44.793Z,54.90
2017-09-03T19:40:12.273Z,55.20
2017-09-03T19:42:39.780Z,55.30
2017-09-03T19:45:14.320Z,55.30
2017-09-03T19:47:42.112Z,55.20
2017-09-03T19:50:15.463Z,55.40
2017-09-03T19:52:44.056Z,56.60
2017-09-03T19:55:11.612Z,56.50
2017-09-03T19:57:45.798Z,56.90
2017-09-03T20:00:14.273Z,57.20
2017-09-03T20:02:44.851Z,57.30
2017-09-03T20:05:15.551Z,57.50
2017-09-03T20:07:46.101Z,57.70
2017-09-03T20:10:13.964Z,57.60
2017-09-03T20:12:44.355Z,57.70
2017-09-03T20:15:15.363Z,57.90
2017-09-03T20:17:44.593Z,58.00
2017-09-03T20:20:12.206Z,58.00
2017-09-03T20:22:45.862Z,58.30
2017-09-03T20:25:14.379Z,58.40
2017-09-03T20:27:41.868Z,58.90
2017-09-03T20:30:09.377Z,58.80
2017-09-03T20:32:43.921Z,58.80
2017-09-03T20:35:11.922Z,58.90
2017-09-03T20:37:39.449Z,59.00
2017-09-03T20:40:14.209Z,58.90
2017-09-03T20:42:41.736Z,59.00
2017-09-03T20:45:09.990Z,59.60
2017-09-03T20:47:45.050Z,59.50
2017-09-03T20:50:12.540Z,59.30
2017-09-03T20:52:40.062Z,59.80
2017-09-03T20:55:14.866Z,60.30
2017-09-03T20:57:45.863Z,60.20
2017-09-03T21:00:14.681Z,60.70
2017-09-03T21:02:45.964Z,60.90
2017-09-03T21:05:13.455Z,61.20
2017-09-03T21:07:41.235Z,61.40
2017-09-03T21:10:14.579Z,61.60
2017-09-03T21:12:45.853Z,62.10
2017-09-03T21:15:15.101Z,62.50
2017-09-03T21:17:42.599Z,63.00
2017-09-03T21:20:10.116Z,63.20
2017-09-03T21:22:37.623Z,63.30
2017-09-03T21:25:15.704Z,63.30
2017-09-03T21:27:43.266Z,63.00
2017-09-03T21:30:10.835Z,63.00
2017-09-03T21:32:44.547Z,63.00
2017-09-03T21:35:12.031Z,63.40
2017-09-03T21:37:46.398Z,63.50
2017-09-03T21:40:13.882Z,63.80
2017-09-03T21:42:44.784Z,63.90
2017-09-03T21:45:15.518Z,64.00
2017-09-03T21:47:46.126Z,64.00
2017-09-03T21:50:13.946Z,64.00
2017-09-03T21:52:41.446Z,64.00
2017-09-03T21:55:08.969Z,64.10
2017-09-03T21:57:37.340Z,64.20
2017-09-03T22:00:14.954Z,64.00
2017-09-03T22:02:42.810Z,64.30
2017-09-03T22:05:10.295Z,64.40
2017-09-03T22:07:37.829Z,64.30
2017-09-03T22:10:14.012Z,64.40
2017-09-03T22:12:44.764Z,64.70
2017-09-03T22:15:12.519Z,64.80
2017-09-03T22:17:40.035Z,65.00
2017-09-03T22:20:14.821Z,64.80
2017-09-03T22:22:43.072Z,64.90
2017-09-03T22:25:10.557Z,64.80
2017-09-03T22:27:38.371Z,65.10
2017-09-03T22:30:14.437Z,65.10
2017-09-03T22:32:42.328Z,65.40
2017-09-03T22:35:09.882Z,66.00
2017-09-03T22:37:37.423Z,66.30
2017-09-03T22:40:15.217Z,66.80
2017-09-03T22:42:42.774Z,68.10
2017-09-03T22:45:10.635Z,67.50
2017-09-03T22:47:38.119Z,68.40
2017-09-03T22:50:05.668Z,67.60
2017-09-03T22:52:35.068Z,67.60
2017-09-03T22:55:05.455Z,67.50
2017-09-03T22:57:34.597Z,67.60
2017-09-03T23:00:05.894Z,67.60
2017-09-03T23:02:33.388Z,67.60
2017-09-03T23:05:01.266Z,67.70
2017-09-03T23:07:28.760Z,67.70
2017-09-03T23:09:56.275Z,68.40
2017-09-03T23:12:23.853Z,67.70
2017-09-03T23:14:51.396Z,67.80
2017-09-03T23:17:25.613Z,67.80
2017-09-03T23:19:56.057Z,67.90
2017-09-03T23:22:23.604Z,67.90
2017-09-03T23:24:51.875Z,67.80
2017-09-03T23:27:20.131Z,67.90
2017-09-03T23:29:54.888Z,67.80
2017-09-03T23:32:25.400Z,68.00
2017-09-03T23:34:52.904Z,68.20
2017-09-03T23:37:26.476Z,68.60
2017-09-03T23:39:54.332Z,68.70
2017-09-03T23:42:24.860Z,68.90
2017-09-03T23:44:53.135Z,69.00
2017-09-03T23:47:20.633Z,69.00
2017-09-03T23:49:54.748Z,69.00
2017-09-03T23:52:22.592Z,69.10
2017-09-03T23:54:50.860Z,69.10
2017-09-03T23:57:25.140Z,68.90
2017-09-03T23:59:55.935Z,69.30
